PWSweather.com
Personal Weather Stations
Station Observations
KAZSIERR7
Canyon De Flores, Sierra Vista, AZ 85650

Canyon De FloresSierra Vista, AZ 85650

Lat: 31.5, Lon: -110.26

Elevation: 4645

Station Type: LaCrosse WS-3610 & Boltek Lightning Detector

http://www.lightningring.com/weather/

High Low Average
Temperature 78.9°F26.1°C 51.6°F10.9°C 65.2°F18.4°C
Dew Point 24.2°F-4.3°C -1.6°F-18.7°C 13.7°F-10.2°C
Winds 13.8 mph 22.2 kmh Calm Calm 5.0 mph S8.0 kmh S
Wind Gusts 63.4 mph102.0 kmh -- 31.0 mph49.9 kmh
Humidity 33% 5% 16%
Pressure 30.04 in1017.3 mb 29.96 in1014.6 mb -
Precipitation 0.00 in0.0 mm - -
Hour Temp Dew Point Humidity Winds Wind Gusts Pressure Precip Precip Rate Daily Precip Total
12:03 AM 56.1°F13.4°C 22.4°F-5.3°C 27% Calm Calm -- 30.03 in1016.9 mb 0.00 in0.0 mm 0.00 in/hr0.0 mm/hr 0.00 in0.0 mm
12:13 AM 55.5°F13.1°C 22.7°F-5.2°C 28% Calm Calm -- 30.03 in1016.9 mb 0.00 in0.0 mm 0.00 in/hr0.0 mm/hr 0.00 in0.0 mm
12:24 AM 55.3°F12.9°C 22.5°F-5.3°C 28% 1.2 mph SE1.9 kmh SE 2.6 mph4.2 kmh 30.04 in1017.3 mb 0.00 in0.0 mm 0.00 in/hr0.0 mm/hr 0.00 in0.0 mm
12:35 AM 55.7°F13.2°C 22.9°F-5.1°C 28% Calm Calm -- 30.04 in1017.3 mb 0.00 in0.0 mm 0.00 in/hr0.0 mm/hr 0.00 in0.0 mm
12:45 AM 54.4°F12.4°C 22.6°F-5.2°C 29% Calm Calm -- 30.04 in1017.3 mb 0.00 in0.0 mm 0.00 in/hr0.0 mm/hr 0.00 in0.0 mm
12:56 AM 53.0°F11.7°C 22.9°F-5.1°C 31% Calm Calm -- 30.04 in1017.3 mb 0.00 in0.0 mm 0.00 in/hr0.0 mm/hr 0.00 in0.0 mm
01:06 AM 52.6°F11.4°C 24.1°F-4.4°C 33% Calm Calm -- 30.04 in1017.3 mb 0.00 in0.0 mm 0.00 in/hr0.0 mm/hr 0.00 in0.0 mm
01:17 AM 52.8°F11.6°C 24.2°F-4.3°C 33% Calm Calm -- 30.03 in1016.9 mb 0.00 in0.0 mm 0.00 in/hr0.0 mm/hr 0.00 in0.0 mm
01:27 AM 53.0°F11.7°C 23.7°F-4.6°C 32% Calm Calm -- 30.03 in1016.9 mb 0.00 in0.0 mm 0.00 in/hr0.0 mm/hr 0.00 in0.0 mm
01:38 AM 53.0°F11.7°C 23.7°F-4.6°C 32% Calm Calm -- 30.03 in1016.9 mb 0.00 in0.0 mm 0.00 in/hr0.0 mm/hr 0.00 in0.0 mm
01:49 AM 53.5°F11.9°C 22.6°F-5.2°C 30% Calm Calm -- 30.02 in1016.6 mb 0.00 in0.0 mm 0.00 in/hr0.0 mm/hr 0.00 in0.0 mm
01:59 AM 53.9°F12.2°C 22.9°F-5.1°C 30% Calm Calm -- 30.02 in1016.6 mb 0.00 in0.0 mm 0.00 in/hr0.0 mm/hr 0.00 in0.0 mm
02:10 AM 54.6°F12.6°C 22.8°F-5.1°C 29% Calm Calm -- 30.02 in1016.6 mb 0.00 in0.0 mm 0.00 in/hr0.0 mm/hr 0.00 in0.0 mm
02:20 AM 53.2°F11.8°C 22.3°F-5.4°C 30% Calm Calm -- 30.02 in1016.6 mb 0.00 in0.0 mm 0.00 in/hr0.0 mm/hr 0.00 in0.0 mm
02:31 AM 53.0°F11.7°C 22.9°F-5.1°C 31% Calm Calm -- 30.01 in1016.3 mb 0.00 in0.0 mm 0.00 in/hr0.0 mm/hr 0.00 in0.0 mm
02:41 AM 52.6°F11.4°C 22.6°F-5.2°C 31% Calm Calm -- 30.01 in1016.3 mb 0.00 in0.0 mm 0.00 in/hr0.0 mm/hr 0.00 in0.0 mm
02:52 AM 51.9°F11.1°C 22.0°F-5.6°C 31% Calm Calm -- 30.01 in1016.3 mb 0.00 in0.0 mm 0.00 in/hr0.0 mm/hr 0.00 in0.0 mm
03:02 AM 51.6°F10.9°C 22.5°F-5.3°C 32% Calm Calm -- 30.01 in1016.3 mb 0.00 in0.0 mm 0.00 in/hr0.0 mm/hr 0.00 in0.0 mm
03:13 AM 55.3°F12.9°C 19.9°F-6.7°C 25% Calm Calm -- 30.00 in1015.9 mb 0.00 in0.0 mm 0.00 in/hr0.0 mm/hr 0.00 in0.0 mm
03:23 AM 58.4°F14.7°C 18.5°F-7.5°C 21% Calm Calm -- 30.00 in1015.9 mb 0.00 in0.0 mm 0.00 in/hr0.0 mm/hr 0.00 in0.0 mm
03:34 AM 60.4°F15.8°C 16.6°F-8.6°C 18% 2.9 mph S4.7 kmh S 7.6 mph12.2 kmh 29.99 in1015.6 mb 0.00 in0.0 mm 0.00 in/hr0.0 mm/hr 0.00 in0.0 mm
03:44 AM 60.7°F15.9°C 16.9°F-8.4°C 18% 3.9 mph SSE6.3 kmh SSE 7.6 mph12.2 kmh 30.00 in1015.9 mb 0.00 in0.0 mm 0.00 in/hr0.0 mm/hr 0.00 in0.0 mm
03:55 AM 60.9°F16.1°C 15.7°F-9.1°C 17% 5.2 mph ESE8.4 kmh ESE 7.0 mph11.3 kmh 29.99 in1015.6 mb 0.00 in0.0 mm 0.00 in/hr0.0 mm/hr 0.00 in0.0 mm
04:05 AM 60.4°F15.8°C 16.6°F-8.6°C 18% Calm Calm 5.2 mph8.4 kmh 30.00 in1015.9 mb 0.00 in0.0 mm 0.00 in/hr0.0 mm/hr 0.00 in0.0 mm
04:16 AM 60.0°F15.6°C 16.3°F-8.7°C 18% 2.3 mph ESE3.7 kmh ESE 4.0 mph6.4 kmh 29.99 in1015.6 mb 0.00 in0.0 mm 0.00 in/hr0.0 mm/hr 0.00 in0.0 mm
04:26 AM 60.4°F15.8°C 16.6°F-8.6°C 18% 3.3 mph SSE5.3 kmh SSE 4.4 mph7.1 kmh 29.99 in1015.6 mb 0.00 in0.0 mm 0.00 in/hr0.0 mm/hr 0.00 in0.0 mm
04:37 AM 60.4°F15.8°C 17.9°F-7.8°C 19% 4.1 mph SE6.6 kmh SE 44.6 mph71.8 kmh 29.99 in1015.6 mb 0.00 in0.0 mm 0.00 in/hr0.0 mm/hr 0.00 in0.0 mm
04:47 AM 60.2°F15.7°C 17.7°F-7.9°C 19% 4.6 mph SE7.4 kmh SE 8.0 mph12.9 kmh 29.99 in1015.6 mb 0.00 in0.0 mm 0.00 in/hr0.0 mm/hr 0.00 in0.0 mm
04:58 AM 60.0°F15.6°C 18.7°F-7.4°C 20% 4.9 mph SE7.9 kmh SE 38.8 mph62.4 kmh 29.99 in1015.6 mb 0.00 in0.0 mm 0.00 in/hr0.0 mm/hr 0.00 in0.0 mm
05:08 AM 60.0°F15.6°C 19.9°F-6.7°C 21% 4.9 mph ESE7.9 kmh ESE 54.0 mph86.9 kmh 29.99 in1015.6 mb 0.00 in0.0 mm 0.00 in/hr0.0 mm/hr 0.00 in0.0 mm
05:19 AM 60.0°F15.6°C 19.9°F-6.7°C 21% 6.6 mph SE10.6 kmh SE 9.8 mph15.8 kmh 30.00 in1015.9 mb 0.00 in0.0 mm 0.00 in/hr0.0 mm/hr 0.00 in0.0 mm
05:29 AM 60.0°F15.6°C 19.9°F-6.7°C 21% 2.7 mph ESE4.3 kmh ESE 8.0 mph12.9 kmh 30.00 in1015.9 mb 0.00 in0.0 mm 0.00 in/hr0.0 mm/hr 0.00 in0.0 mm
05:40 AM 60.0°F15.6°C 19.9°F-6.7°C 21% 6.3 mph SSE10.1 kmh SSE 45.6 mph73.4 kmh 30.00 in1015.9 mb 0.00 in0.0 mm 0.00 in/hr0.0 mm/hr 0.00 in0.0 mm
05:50 AM 60.0°F15.6°C 19.9°F-6.7°C 21% 3.5 mph SE5.6 kmh SE 50.4 mph81.1 kmh 30.01 in1016.3 mb 0.00 in0.0 mm 0.00 in/hr0.0 mm/hr 0.00 in0.0 mm
06:01 AM 59.5°F15.3°C 19.4°F-7.0°C 21% 0.9 mph S1.4 kmh S 3.0 mph4.8 kmh 30.00 in1015.9 mb 0.00 in0.0 mm 0.00 in/hr0.0 mm/hr 0.00 in0.0 mm
06:11 AM 59.7°F15.4°C 18.5°F-7.5°C 20% Calm Calm -- 30.00 in1015.9 mb 0.00 in0.0 mm 0.00 in/hr0.0 mm/hr 0.00 in0.0 mm
06:22 AM 59.7°F15.4°C 18.5°F-7.5°C 20% 3.3 mph SSE5.3 kmh SSE 23.6 mph38.0 kmh 30.00 in1015.9 mb 0.00 in0.0 mm 0.00 in/hr0.0 mm/hr 0.00 in0.0 mm
06:32 AM 60.2°F15.7°C 18.9°F-7.3°C 20% 6.0 mph SE9.7 kmh SE 8.4 mph13.5 kmh 30.01 in1016.3 mb 0.00 in0.0 mm 0.00 in/hr0.0 mm/hr 0.00 in0.0 mm
06:43 AM 60.7°F15.9°C 20.4°F-6.4°C 21% 3.2 mph SE5.1 kmh SE 44.2 mph71.1 kmh 30.01 in1016.3 mb 0.00 in0.0 mm 0.00 in/hr0.0 mm/hr 0.00 in0.0 mm
06:53 AM 63.1°F17.3°C 20.1°F-6.6°C 19% 7.1 mph SSE11.4 kmh SSE 47.8 mph76.9 kmh 30.01 in1016.3 mb 0.00 in0.0 mm 0.00 in/hr0.0 mm/hr 0.00 in0.0 mm
07:04 AM 62.1°F16.7°C 20.5°F-6.4°C 20% 7.8 mph SE12.6 kmh SE 60.8 mph97.8 kmh 30.00 in1015.9 mb 0.00 in0.0 mm 0.00 in/hr0.0 mm/hr 0.00 in0.0 mm
07:14 AM 64.2°F17.9°C 19.8°F-6.8°C 18% 5.3 mph SE8.5 kmh SE 44.6 mph71.8 kmh 30.01 in1016.3 mb 0.00 in0.0 mm 0.00 in/hr0.0 mm/hr 0.00 in0.0 mm
07:25 AM 62.7°F17.1°C 19.7°F-6.8°C 19% 7.2 mph SE11.6 kmh SE 55.8 mph89.8 kmh 30.01 in1016.3 mb 0.00 in0.0 mm 0.00 in/hr0.0 mm/hr 0.00 in0.0 mm
07:35 AM 64.1°F17.8°C 19.6°F-6.9°C 18% 8.8 mph S14.2 kmh S 57.2 mph92.1 kmh 30.01 in1016.3 mb 0.00 in0.0 mm 0.00 in/hr0.0 mm/hr 0.00 in0.0 mm
07:46 AM 65.5°F18.6°C 19.5°F-6.9°C 17% 9.7 mph SE15.6 kmh SE 46.8 mph75.3 kmh 30.01 in1016.3 mb 0.00 in0.0 mm 0.00 in/hr0.0 mm/hr 0.00 in0.0 mm
07:56 AM 64.8°F18.2°C 18.9°F-7.3°C 17% 7.6 mph SSE12.2 kmh SSE 50.0 mph80.5 kmh 30.02 in1016.6 mb 0.00 in0.0 mm 0.00 in/hr0.0 mm/hr 0.00 in0.0 mm
08:07 AM 63.3°F17.4°C 17.7°F-7.9°C 17% 8.9 mph SSE14.3 kmh SSE 48.2 mph77.6 kmh 30.02 in1016.6 mb 0.00 in0.0 mm 0.00 in/hr0.0 mm/hr 0.00 in0.0 mm
08:17 AM 62.7°F17.1°C 17.2°F-8.2°C 17% 9.8 mph S15.8 kmh S 38.8 mph62.4 kmh 30.02 in1016.6 mb 0.00 in0.0 mm 0.00 in/hr0.0 mm/hr 0.00 in0.0 mm
08:28 AM 62.8°F17.1°C 17.3°F-8.2°C 17% 7.8 mph SE12.6 kmh SE 45.6 mph73.4 kmh 30.02 in1016.6 mb 0.00 in0.0 mm 0.00 in/hr0.0 mm/hr 0.00 in0.0 mm
08:38 AM 63.2°F17.3°C 17.6°F-8.0°C 17% 11.3 mph SSE18.2 kmh SSE 58.6 mph94.3 kmh 30.02 in1016.6 mb 0.00 in0.0 mm 0.00 in/hr0.0 mm/hr 0.00 in0.0 mm
08:49 AM 63.6°F17.6°C 16.5°F-8.6°C 16% 9.5 mph SE15.3 kmh SE 40.2 mph64.7 kmh 30.02 in1016.6 mb 0.00 in0.0 mm 0.00 in/hr0.0 mm/hr 0.00 in0.0 mm
08:59 AM 65.9°F18.8°C 13.5°F-10.3°C 13% 9.3 mph SE15.0 kmh SE 46.4 mph74.7 kmh 30.03 in1016.9 mb 0.00 in0.0 mm 0.00 in/hr0.0 mm/hr 0.00 in0.0 mm
09:10 AM 65.7°F18.7°C 11.5°F-11.4°C 12% 11.5 mph SE18.5 kmh SE 43.2 mph69.5 kmh 30.02 in1016.6 mb 0.00 in0.0 mm 0.00 in/hr0.0 mm/hr 0.00 in0.0 mm
09:20 AM 66.9°F19.4°C 12.4°F-10.9°C 12% 12.2 mph SE19.6 kmh SE 51.4 mph82.7 kmh 30.03 in1016.9 mb 0.00 in0.0 mm 0.00 in/hr0.0 mm/hr 0.00 in0.0 mm
09:31 AM 65.6°F18.7°C 11.5°F-11.4°C 12% 10.8 mph ESE17.4 kmh ESE 47.8 mph76.9 kmh 30.03 in1016.9 mb 0.00 in0.0 mm 0.00 in/hr0.0 mm/hr 0.00 in0.0 mm
09:41 AM 67.1°F19.5°C 12.6°F-10.8°C 12% 8.6 mph SSE13.8 kmh SSE 52.6 mph84.7 kmh 30.03 in1016.9 mb 0.00 in0.0 mm 0.00 in/hr0.0 mm/hr 0.00 in0.0 mm
09:52 AM 66.7°F19.3°C 12.2°F-11.0°C 12% 13.8 mph S22.2 kmh S 45.0 mph72.4 kmh 30.03 in1016.9 mb 0.00 in0.0 mm 0.00 in/hr0.0 mm/hr 0.00 in0.0 mm
10:02 AM 65.0°F18.3°C 12.8°F-10.7°C 13% 11.3 mph SSE18.2 kmh SSE 56.2 mph90.4 kmh 30.02 in1016.6 mb 0.00 in0.0 mm 0.00 in/hr0.0 mm/hr 0.00 in0.0 mm
10:13 AM 67.3°F19.6°C 14.6°F-9.7°C 13% 10.4 mph SE16.7 kmh SE 44.6 mph71.8 kmh 30.02 in1016.6 mb 0.00 in0.0 mm 0.00 in/hr0.0 mm/hr 0.00 in0.0 mm
10:23 AM 68.1°F20.1°C 11.3°F-11.5°C 11% 12.1 mph SE19.5 kmh SE 51.8 mph83.4 kmh 30.02 in1016.6 mb 0.00 in0.0 mm 0.00 in/hr0.0 mm/hr 0.00 in0.0 mm
10:34 AM 68.5°F20.3°C 11.6°F-11.3°C 11% 9.9 mph SSE15.9 kmh SSE 55.0 mph88.5 kmh 30.02 in1016.6 mb 0.00 in0.0 mm 0.00 in/hr0.0 mm/hr 0.00 in0.0 mm
10:44 AM 67.5°F19.7°C 8.7°F-12.9°C 10% 9.2 mph S14.8 kmh S 59.0 mph95.0 kmh 30.03 in1016.9 mb 0.00 in0.0 mm 0.00 in/hr0.0 mm/hr 0.00 in0.0 mm
10:55 AM 68.1°F20.1°C 11.3°F-11.5°C 11% 5.5 mph SE8.9 kmh SE 51.8 mph83.4 kmh 30.02 in1016.6 mb 0.00 in0.0 mm 0.00 in/hr0.0 mm/hr 0.00 in0.0 mm
11:05 AM 68.2°F20.1°C 9.2°F-12.7°C 10% 7.6 mph SSE12.2 kmh SSE 38.8 mph62.4 kmh 30.01 in1016.3 mb 0.00 in0.0 mm 0.00 in/hr0.0 mm/hr 0.00 in0.0 mm
11:16 AM 71.5°F21.9°C 3.9°F-15.6°C 7% 6.2 mph SSW10.0 kmh SSW 50.0 mph80.5 kmh 30.01 in1016.3 mb 0.00 in0.0 mm 0.00 in/hr0.0 mm/hr 0.00 in0.0 mm
11:26 AM 73.2°F22.9°C 2.0°F-16.7°C 6% 9.4 mph SSE15.1 kmh SSE 55.8 mph89.8 kmh 30.02 in1016.6 mb 0.00 in0.0 mm 0.00 in/hr0.0 mm/hr 0.00 in0.0 mm
11:37 AM 74.7°F23.7°C 3.0°F-16.1°C 6% 5.6 mph SW9.0 kmh SW 57.6 mph92.7 kmh 30.01 in1016.3 mb 0.00 in0.0 mm 0.00 in/hr0.0 mm/hr 0.00 in0.0 mm
11:48 AM 73.0°F22.8°C -1.6°F-18.7°C 5% 8.8 mph SE14.2 kmh SE 47.4 mph76.3 kmh 30.01 in1016.3 mb 0.00 in0.0 mm 0.00 in/hr0.0 mm/hr 0.00 in0.0 mm
11:58 AM 73.9°F23.3°C -1.0°F-18.3°C 5% 7.5 mph SW12.1 kmh SW 57.2 mph92.1 kmh 30.01 in1016.3 mb 0.00 in0.0 mm 0.00 in/hr0.0 mm/hr 0.00 in0.0 mm
12:09 PM 74.8°F23.8°C -0.4°F-18.0°C 5% 5.7 mph S9.2 kmh S 57.2 mph92.1 kmh 29.99 in1015.6 mb 0.00 in0.0 mm 0.00 in/hr0.0 mm/hr 0.00 in0.0 mm
12:19 PM 75.9°F24.4°C 0.4°F-17.6°C 5% 5.8 mph WNW9.3 kmh WNW 57.2 mph92.1 kmh 30.00 in1015.9 mb 0.00 in0.0 mm 0.00 in/hr0.0 mm/hr 0.00 in0.0 mm
12:30 PM 76.9°F24.9°C 1.1°F-17.2°C 5% 7.7 mph S12.4 kmh S 32.2 mph51.8 kmh 29.99 in1015.6 mb 0.00 in0.0 mm 0.00 in/hr0.0 mm/hr 0.00 in0.0 mm
12:40 PM 76.7°F24.8°C 1.0°F-17.2°C 5% 8.1 mph SSW13.0 kmh SSW 56.8 mph91.4 kmh 29.99 in1015.6 mb 0.00 in0.0 mm 0.00 in/hr0.0 mm/hr 0.00 in0.0 mm
12:52 PM 75.8°F24.3°C 3.8°F-15.7°C 6% 8.7 mph SE14.0 kmh SE 55.4 mph89.2 kmh 29.98 in1015.2 mb 0.00 in0.0 mm 0.00 in/hr0.0 mm/hr 0.00 in0.0 mm
01:02 PM 77.6°F25.3°C 5.1°F-14.9°C 6% 10.1 mph SSW16.3 kmh SSW 50.4 mph81.1 kmh 29.99 in1015.6 mb 0.00 in0.0 mm 0.00 in/hr0.0 mm/hr 0.00 in0.0 mm
01:13 PM 74.7°F23.7°C 3.0°F-16.1°C 6% 11.8 mph SE19.0 kmh SE 57.2 mph92.1 kmh 29.98 in1015.2 mb 0.00 in0.0 mm 0.00 in/hr0.0 mm/hr 0.00 in0.0 mm
01:23 PM 77.8°F25.4°C 5.3°F-14.8°C 6% 5.3 mph S8.5 kmh S 57.2 mph92.1 kmh 29.98 in1015.2 mb 0.00 in0.0 mm 0.00 in/hr0.0 mm/hr 0.00 in0.0 mm
01:34 PM 78.9°F26.1°C 2.6°F-16.3°C 5% 3.6 mph SE5.8 kmh SE 42.4 mph68.2 kmh 29.98 in1015.2 mb 0.00 in0.0 mm 0.00 in/hr0.0 mm/hr 0.00 in0.0 mm
01:44 PM 77.5°F25.3°C 1.5°F-16.9°C 5% 4.4 mph SE7.1 kmh SE 56.2 mph90.4 kmh 29.98 in1015.2 mb 0.00 in0.0 mm 0.00 in/hr0.0 mm/hr 0.00 in0.0 mm
01:55 PM 77.0°F25.0°C 4.7°F-15.2°C 6% 3.0 mph SSE4.8 kmh SSE 8.4 mph13.5 kmh 29.97 in1014.9 mb 0.00 in0.0 mm 0.00 in/hr0.0 mm/hr 0.00 in0.0 mm
02:05 PM 77.3°F25.2°C 1.4°F-17.0°C 5% 6.9 mph SSW11.1 kmh SSW 42.4 mph68.2 kmh 29.97 in1014.9 mb 0.00 in0.0 mm 0.00 in/hr0.0 mm/hr 0.00 in0.0 mm
02:16 PM 77.3°F25.2°C 4.9°F-15.1°C 6% 2.3 mph SW3.7 kmh SW 52.6 mph84.7 kmh 29.97 in1014.9 mb 0.00 in0.0 mm 0.00 in/hr0.0 mm/hr 0.00 in0.0 mm
02:26 PM 77.2°F25.1°C 4.8°F-15.1°C 6% 5.2 mph SW8.4 kmh SW 9.2 mph14.8 kmh 29.97 in1014.9 mb 0.00 in0.0 mm 0.00 in/hr0.0 mm/hr 0.00 in0.0 mm
02:37 PM 76.0°F24.4°C 10.0°F-12.2°C 8% 6.3 mph SW10.1 kmh SW 49.6 mph79.8 kmh 29.96 in1014.6 mb 0.00 in0.0 mm 0.00 in/hr0.0 mm/hr 0.00 in0.0 mm
02:48 PM 76.6°F24.8°C 13.2°F-10.4°C 9% 1.6 mph W2.6 kmh W 57.6 mph92.7 kmh 29.96 in1014.6 mb 0.00 in0.0 mm 0.00 in/hr0.0 mm/hr 0.00 in0.0 mm
02:58 PM 76.3°F24.6°C 10.3°F-12.1°C 8% 4.9 mph SSW7.9 kmh SSW 9.2 mph14.8 kmh 29.97 in1014.9 mb 0.00 in0.0 mm 0.00 in/hr0.0 mm/hr 0.00 in0.0 mm
03:09 PM 76.1°F24.5°C 10.2°F-12.1°C 8% 3.0 mph W4.8 kmh W 46.4 mph74.7 kmh 29.97 in1014.9 mb 0.00 in0.0 mm 0.00 in/hr0.0 mm/hr 0.00 in0.0 mm
03:19 PM 74.5°F23.6°C 6.1°F-14.4°C 7% 4.6 mph SW7.4 kmh SW 43.8 mph70.5 kmh 29.97 in1014.9 mb 0.00 in0.0 mm 0.00 in/hr0.0 mm/hr 0.00 in0.0 mm
03:30 PM 73.7°F23.2°C 5.5°F-14.7°C 7% 1.6 mph WSW2.6 kmh WSW 42.8 mph68.9 kmh 29.97 in1014.9 mb 0.00 in0.0 mm 0.00 in/hr0.0 mm/hr 0.00 in0.0 mm
03:41 PM 72.7°F22.6°C 4.7°F-15.2°C 7% 3.7 mph W6.0 kmh W 8.0 mph12.9 kmh 29.97 in1014.9 mb 0.00 in0.0 mm 0.00 in/hr0.0 mm/hr 0.00 in0.0 mm
03:52 PM 73.1°F22.8°C 5.0°F-15.0°C 7% 3.3 mph WSW5.3 kmh WSW 8.0 mph12.9 kmh 29.97 in1014.9 mb 0.00 in0.0 mm 0.00 in/hr0.0 mm/hr 0.00 in0.0 mm
04:03 PM 74.0°F23.3°C 5.7°F-14.6°C 7% 2.3 mph WSW3.7 kmh WSW 41.6 mph66.9 kmh 29.97 in1014.9 mb 0.00 in0.0 mm 0.00 in/hr0.0 mm/hr 0.00 in0.0 mm
04:13 PM 74.4°F23.6°C 2.9°F-16.2°C 6% 4.6 mph SW7.4 kmh SW 32.6 mph52.5 kmh 29.97 in1014.9 mb 0.00 in0.0 mm 0.00 in/hr0.0 mm/hr 0.00 in0.0 mm
04:24 PM 74.4°F23.6°C 2.8°F-16.2°C 6% 8.5 mph SW13.7 kmh SW 49.2 mph79.2 kmh 29.97 in1014.9 mb 0.00 in0.0 mm 0.00 in/hr0.0 mm/hr 0.00 in0.0 mm
04:34 PM 72.9°F22.7°C 4.9°F-15.1°C 7% 5.8 mph WSW9.3 kmh WSW 63.4 mph102.0 kmh 29.97 in1014.9 mb 0.00 in0.0 mm 0.00 in/hr0.0 mm/hr 0.00 in0.0 mm
04:44 PM 71.5°F21.9°C 3.8°F-15.7°C 7% 5.9 mph WSW9.5 kmh WSW 16.4 mph26.4 kmh 29.98 in1015.2 mb 0.00 in0.0 mm 0.00 in/hr0.0 mm/hr 0.00 in0.0 mm
04:55 PM 69.8°F21.0°C 2.6°F-16.3°C 7% 10.2 mph SW16.4 kmh SW 53.2 mph85.6 kmh 29.98 in1015.2 mb 0.00 in0.0 mm 0.00 in/hr0.0 mm/hr 0.00 in0.0 mm
05:05 PM 69.8°F21.0°C 8.1°F-13.3°C 9% 6.2 mph SW10.0 kmh SW 55.0 mph88.5 kmh 29.98 in1015.2 mb 0.00 in0.0 mm 0.00 in/hr0.0 mm/hr 0.00 in0.0 mm
05:16 PM 71.3°F21.8°C 9.2°F-12.7°C 9% 5.2 mph WSW8.4 kmh WSW 48.2 mph77.6 kmh 29.98 in1015.2 mb 0.00 in0.0 mm 0.00 in/hr0.0 mm/hr 0.00 in0.0 mm
05:26 PM 70.7°F21.5°C 8.8°F-12.9°C 9% 4.1 mph SW6.6 kmh SW 55.8 mph89.8 kmh 29.98 in1015.2 mb 0.00 in0.0 mm 0.00 in/hr0.0 mm/hr 0.00 in0.0 mm
05:37 PM 70.3°F21.3°C 8.4°F-13.1°C 9% 7.5 mph SW12.1 kmh SW 41.6 mph66.9 kmh 29.98 in1015.2 mb 0.00 in0.0 mm 0.00 in/hr0.0 mm/hr 0.00 in0.0 mm
05:47 PM 69.4°F20.8°C 10.1°F-12.2°C 10% 4.2 mph SW6.8 kmh SW 49.2 mph79.2 kmh 29.98 in1015.2 mb 0.00 in0.0 mm 0.00 in/hr0.0 mm/hr 0.00 in0.0 mm
05:58 PM 68.1°F20.1°C 9.2°F-12.7°C 10% 7.4 mph SW11.9 kmh SW 54.0 mph86.9 kmh 29.98 in1015.2 mb 0.00 in0.0 mm 0.00 in/hr0.0 mm/hr 0.00 in0.0 mm
06:08 PM 67.6°F19.8°C 11.0°F-11.7°C 11% 7.3 mph SW11.7 kmh SW 52.2 mph84.0 kmh 29.98 in1015.2 mb 0.00 in0.0 mm 0.00 in/hr0.0 mm/hr 0.00 in0.0 mm
06:19 PM 67.2°F19.6°C 10.6°F-11.9°C 11% 6.1 mph SW9.8 kmh SW 46.8 mph75.3 kmh 29.98 in1015.2 mb 0.00 in0.0 mm 0.00 in/hr0.0 mm/hr 0.00 in0.0 mm
06:29 PM 66.5°F19.2°C 12.1°F-11.1°C 12% Calm Calm 47.4 mph76.3 kmh 29.98 in1015.2 mb 0.00 in0.0 mm 0.00 in/hr0.0 mm/hr 0.00 in0.0 mm
06:40 PM 65.8°F18.8°C 11.5°F-11.4°C 12% 3.3 mph SSE5.3 kmh SSE 4.4 mph7.1 kmh 29.98 in1015.2 mb 0.00 in0.0 mm 0.00 in/hr0.0 mm/hr 0.00 in0.0 mm
06:50 PM 65.8°F18.8°C 11.6°F-11.3°C 12% 2.2 mph SW3.5 kmh SW 18.2 mph29.3 kmh 29.99 in1015.6 mb 0.00 in0.0 mm 0.00 in/hr0.0 mm/hr 0.00 in0.0 mm
07:01 PM 65.4°F18.6°C 11.3°F-11.5°C 12% Calm Calm 44.6 mph71.8 kmh 29.99 in1015.6 mb 0.00 in0.0 mm 0.00 in/hr0.0 mm/hr 0.00 in0.0 mm
07:11 PM 64.5°F18.1°C 12.4°F-10.9°C 13% Calm Calm -- 29.99 in1015.6 mb 0.00 in0.0 mm 0.00 in/hr0.0 mm/hr 0.00 in0.0 mm
07:22 PM 63.8°F17.7°C 13.6°F-10.2°C 14% Calm Calm -- 29.99 in1015.6 mb 0.00 in0.0 mm 0.00 in/hr0.0 mm/hr 0.00 in0.0 mm
07:32 PM 64.0°F17.8°C 13.7°F-10.2°C 14% Calm Calm 1.6 mph2.6 kmh 30.00 in1015.9 mb 0.00 in0.0 mm 0.00 in/hr0.0 mm/hr 0.00 in0.0 mm
07:43 PM 63.1°F17.3°C 13.0°F-10.6°C 14% Calm Calm -- 30.00 in1015.9 mb 0.00 in0.0 mm 0.00 in/hr0.0 mm/hr 0.00 in0.0 mm
07:53 PM 61.6°F16.4°C 14.9°F-9.5°C 16% Calm Calm -- 29.99 in1015.6 mb 0.00 in0.0 mm 0.00 in/hr0.0 mm/hr 0.00 in0.0 mm
08:04 PM 62.5°F16.9°C 12.5°F-10.8°C 14% 3.9 mph NE6.3 kmh NE 5.2 mph8.4 kmh 29.99 in1015.6 mb 0.00 in0.0 mm 0.00 in/hr0.0 mm/hr 0.00 in0.0 mm
08:14 PM 62.4°F16.9°C 12.5°F-10.8°C 14% Calm Calm 5.2 mph8.4 kmh 29.99 in1015.6 mb 0.00 in0.0 mm 0.00 in/hr0.0 mm/hr 0.00 in0.0 mm
08:25 PM 61.6°F16.4°C 13.4°F-10.3°C 15% Calm Calm -- 29.99 in1015.6 mb 0.00 in0.0 mm 0.00 in/hr0.0 mm/hr 0.00 in0.0 mm
08:35 PM 60.9°F16.1°C 14.3°F-9.8°C 16% Calm Calm -- 29.99 in1015.6 mb 0.00 in0.0 mm 0.00 in/hr0.0 mm/hr 0.00 in0.0 mm
08:46 PM 60.9°F16.1°C 14.3°F-9.8°C 16% Calm Calm -- 30.00 in1015.9 mb 0.00 in0.0 mm 0.00 in/hr0.0 mm/hr 0.00 in0.0 mm
08:56 PM 59.8°F15.4°C 14.8°F-9.6°C 17% Calm Calm -- 29.99 in1015.6 mb 0.00 in0.0 mm 0.00 in/hr0.0 mm/hr 0.00 in0.0 mm
09:07 PM 59.8°F15.4°C 14.8°F-9.6°C 17% Calm Calm -- 29.99 in1015.6 mb 0.00 in0.0 mm 0.00 in/hr0.0 mm/hr 0.00 in0.0 mm
09:17 PM 60.4°F15.8°C 13.9°F-10.1°C 16% 1.7 mph 2.7 kmh 3.4 mph5.5 kmh 29.99 in1015.6 mb 0.00 in0.0 mm 0.00 in/hr0.0 mm/hr 0.00 in0.0 mm
09:28 PM 60.0°F15.6°C 15.0°F-9.4°C 17% Calm Calm 4.8 mph7.7 kmh 29.99 in1015.6 mb 0.00 in0.0 mm 0.00 in/hr0.0 mm/hr 0.00 in0.0 mm
09:38 PM 60.4°F15.8°C 15.3°F-9.3°C 17% 7.0 mph SE11.3 kmh SE 56.2 mph90.4 kmh 30.00 in1015.9 mb 0.00 in0.0 mm 0.00 in/hr0.0 mm/hr 0.00 in0.0 mm
09:49 PM 60.4°F15.8°C 13.9°F-10.1°C 16% 6.3 mph SE10.1 kmh SE 43.8 mph70.5 kmh 30.00 in1015.9 mb 0.00 in0.0 mm 0.00 in/hr0.0 mm/hr 0.00 in0.0 mm
09:59 PM 60.4°F15.8°C 13.9°F-10.1°C 16% 6.3 mph SE10.1 kmh SE 41.0 mph66.0 kmh 30.00 in1015.9 mb 0.00 in0.0 mm 0.00 in/hr0.0 mm/hr 0.00 in0.0 mm
10:10 PM 60.7°F15.9°C 14.2°F-9.9°C 16% 12.4 mph ESE20.0 kmh ESE 60.8 mph97.8 kmh 30.00 in1015.9 mb 0.00 in0.0 mm 0.00 in/hr0.0 mm/hr 0.00 in0.0 mm
10:20 PM 60.7°F15.9°C 14.2°F-9.9°C 16% 2.3 mph SE3.7 kmh SE 50.0 mph80.5 kmh 30.00 in1015.9 mb 0.00 in0.0 mm 0.00 in/hr0.0 mm/hr 0.00 in0.0 mm
10:31 PM 60.9°F16.1°C 14.3°F-9.8°C 16% 2.7 mph SE4.3 kmh SE 46.8 mph75.3 kmh 30.00 in1015.9 mb 0.00 in0.0 mm 0.00 in/hr0.0 mm/hr 0.00 in0.0 mm
10:41 PM 60.0°F15.6°C 15.0°F-9.4°C 17% 4.4 mph SE7.1 kmh SE 14.2 mph22.9 kmh 30.00 in1015.9 mb 0.00 in0.0 mm 0.00 in/hr0.0 mm/hr 0.00 in0.0 mm
10:52 PM 59.3°F15.2°C 14.4°F-9.8°C 17% 3.6 mph ESE5.8 kmh ESE 8.0 mph12.9 kmh 30.00 in1015.9 mb 0.00 in0.0 mm 0.00 in/hr0.0 mm/hr 0.00 in0.0 mm
11:02 PM 59.3°F15.2°C 15.7°F-9.1°C 18% 0.6 mph SE1.0 kmh SE 6.2 mph10.0 kmh 30.00 in1015.9 mb 0.00 in0.0 mm 0.00 in/hr0.0 mm/hr 0.00 in0.0 mm
11:13 PM 58.2°F14.6°C 14.8°F-9.6°C 18% Calm Calm 2.6 mph4.2 kmh 30.00 in1015.9 mb 0.00 in0.0 mm 0.00 in/hr0.0 mm/hr 0.00 in0.0 mm
11:23 PM 57.9°F14.4°C 14.6°F-9.7°C 18% Calm Calm -- 30.00 in1015.9 mb 0.00 in0.0 mm 0.00 in/hr0.0 mm/hr 0.00 in0.0 mm
11:34 PM 57.1°F13.9°C 16.3°F-8.7°C 20% 0.9 mph ESE1.4 kmh ESE 1.2 mph1.9 kmh 30.00 in1015.9 mb 0.00 in0.0 mm 0.00 in/hr0.0 mm/hr 0.00 in0.0 mm
11:44 PM 56.4°F13.6°C 15.7°F-9.1°C 20% Calm Calm 1.2 mph1.9 kmh 30.00 in1015.9 mb 0.00 in0.0 mm 0.00 in/hr0.0 mm/hr 0.00 in0.0 mm
11:55 PM 55.3°F12.9°C 15.9°F-8.9°C 21% Calm Calm -- 30.00 in1015.9 mb 0.00 in0.0 mm 0.00 in/hr0.0 mm/hr 0.00 in0.0 mm